sensor_id;sensor_type;location;lat;lon;timestamp;P1;durP1;ratioP1;P2;durP2;ratioP2
8474;SDS011;4274;52.012;8.448;2023-12-22T00:00:29;51.60;;;4.13;;
8474;SDS011;4274;52.012;8.448;2023-12-22T00:02:55;48.90;;;4.10;;
8474;SDS011;4274;52.012;8.448;2023-12-22T00:05:20;51.50;;;4.30;;
8474;SDS011;4274;52.012;8.448;2023-12-22T00:07:46;52.73;;;4.43;;
8474;SDS011;4274;52.012;8.448;2023-12-22T00:10:11;49.63;;;3.67;;
8474;SDS011;4274;52.012;8.448;2023-12-22T00:12:37;52.40;;;4.07;;
8474;SDS011;4274;52.012;8.448;2023-12-22T00:15:03;51.57;;;3.80;;
8474;SDS011;4274;52.012;8.448;2023-12-22T00:17:30;40.83;;;3.50;;
8474;SDS011;4274;52.012;8.448;2023-12-22T00:19:56;46.27;;;4.30;;
8474;SDS011;4274;52.012;8.448;2023-12-22T00:22:24;51.27;;;4.30;;
8474;SDS011;4274;52.012;8.448;2023-12-22T00:24:50;52.17;;;4.33;;
8474;SDS011;4274;52.012;8.448;2023-12-22T00:27:16;46.27;;;4.70;;
8474;SDS011;4274;52.012;8.448;2023-12-22T00:29:41;57.97;;;5.00;;
8474;SDS011;4274;52.012;8.448;2023-12-22T00:32:07;62.83;;;4.60;;
8474;SDS011;4274;52.012;8.448;2023-12-22T00:34:34;51.70;;;6.00;;
8474;SDS011;4274;52.012;8.448;2023-12-22T00:37:00;50.10;;;4.40;;
8474;SDS011;4274;52.012;8.448;2023-12-22T00:39:26;67.27;;;5.10;;
8474;SDS011;4274;52.012;8.448;2023-12-22T00:41:51;63.07;;;5.30;;
8474;SDS011;4274;52.012;8.448;2023-12-22T00:44:17;66.33;;;4.97;;
8474;SDS011;4274;52.012;8.448;2023-12-22T00:46:43;58.13;;;4.93;;
8474;SDS011;4274;52.012;8.448;2023-12-22T00:49:08;59.97;;;5.10;;
8474;SDS011;4274;52.012;8.448;2023-12-22T00:51:34;52.23;;;4.73;;
8474;SDS011;4274;52.012;8.448;2023-12-22T00:53:59;52.90;;;4.87;;
8474;SDS011;4274;52.012;8.448;2023-12-22T00:56:25;53.03;;;4.50;;
8474;SDS011;4274;52.012;8.448;2023-12-22T00:58:50;67.23;;;5.33;;
8474;SDS011;4274;52.012;8.448;2023-12-22T01:01:16;49.97;;;4.20;;
8474;SDS011;4274;52.012;8.448;2023-12-22T01:03:42;47.97;;;3.60;;
8474;SDS011;4274;52.012;8.448;2023-12-22T01:06:07;58.10;;;4.23;;
8474;SDS011;4274;52.012;8.448;2023-12-22T01:08:33;60.23;;;4.03;;
8474;SDS011;4274;52.012;8.448;2023-12-22T01:10:58;57.23;;;4.60;;
8474;SDS011;4274;52.012;8.448;2023-12-22T01:13:24;57.23;;;4.27;;
8474;SDS011;4274;52.012;8.448;2023-12-22T01:15:49;49.67;;;4.07;;
8474;SDS011;4274;52.012;8.448;2023-12-22T01:18:15;53.20;;;4.70;;
8474;SDS011;4274;52.012;8.448;2023-12-22T01:20:41;53.80;;;4.10;;
8474;SDS011;4274;52.012;8.448;2023-12-22T01:23:06;47.70;;;3.40;;
8474;SDS011;4274;52.012;8.448;2023-12-22T01:25:32;47.90;;;4.00;;
8474;SDS011;4274;52.012;8.448;2023-12-22T01:27:57;55.80;;;3.73;;
8474;SDS011;4274;52.012;8.448;2023-12-22T01:30:23;60.40;;;4.30;;
8474;SDS011;4274;52.012;8.448;2023-12-22T01:32:48;64.87;;;5.20;;
8474;SDS011;4274;52.012;8.448;2023-12-22T01:35:14;51.97;;;3.90;;
8474;SDS011;4274;52.012;8.448;2023-12-22T01:37:39;49.13;;;3.70;;
8474;SDS011;4274;52.012;8.448;2023-12-22T01:40:05;47.53;;;4.40;;
8474;SDS011;4274;52.012;8.448;2023-12-22T01:42:31;58.40;;;3.27;;
8474;SDS011;4274;52.012;8.448;2023-12-22T01:44:57;58.50;;;3.90;;
8474;SDS011;4274;52.012;8.448;2023-12-22T01:47:22;47.80;;;3.93;;
8474;SDS011;4274;52.012;8.448;2023-12-22T01:49:48;50.37;;;4.50;;
8474;SDS011;4274;52.012;8.448;2023-12-22T01:52:14;42.30;;;3.00;;
8474;SDS011;4274;52.012;8.448;2023-12-22T01:54:41;46.47;;;3.33;;
8474;SDS011;4274;52.012;8.448;2023-12-22T01:57:07;49.23;;;5.37;;
8474;SDS011;4274;52.012;8.448;2023-12-22T01:59:33;43.53;;;3.77;;
8474;SDS011;4274;52.012;8.448;2023-12-22T02:02:02;56.10;;;5.10;;
8474;SDS011;4274;52.012;8.448;2023-12-22T02:04:29;48.60;;;3.50;;
8474;SDS011;4274;52.012;8.448;2023-12-22T02:06:56;41.77;;;4.00;;
8474;SDS011;4274;52.012;8.448;2023-12-22T02:09:23;44.73;;;3.83;;
8474;SDS011;4274;52.012;8.448;2023-12-22T02:11:49;46.00;;;4.00;;
8474;SDS011;4274;52.012;8.448;2023-12-22T02:14:15;42.23;;;3.37;;
8474;SDS011;4274;52.012;8.448;2023-12-22T02:16:55;45.30;;;3.67;;
8474;SDS011;4274;52.012;8.448;2023-12-22T02:19:41;48.17;;;3.73;;
8474;SDS011;4274;52.012;8.448;2023-12-22T02:22:08;53.80;;;3.30;;
8474;SDS011;4274;52.012;8.448;2023-12-22T02:24:35;49.90;;;3.50;;
8474;SDS011;4274;52.012;8.448;2023-12-22T02:27:04;49.00;;;3.50;;
8474;SDS011;4274;52.012;8.448;2023-12-22T02:29:34;41.73;;;3.17;;
8474;SDS011;4274;52.012;8.448;2023-12-22T02:32:03;47.40;;;3.70;;
8474;SDS011;4274;52.012;8.448;2023-12-22T02:34:35;60.83;;;4.43;;
8474;SDS011;4274;52.012;8.448;2023-12-22T02:37:05;47.80;;;3.30;;
8474;SDS011;4274;52.012;8.448;2023-12-22T02:39:33;48.47;;;4.77;;
8474;SDS011;4274;52.012;8.448;2023-12-22T02:42:00;53.40;;;4.40;;
8474;SDS011;4274;52.012;8.448;2023-12-22T02:44:27;48.70;;;4.23;;
8474;SDS011;4274;52.012;8.448;2023-12-22T02:46:52;56.20;;;3.87;;
8474;SDS011;4274;52.012;8.448;2023-12-22T02:49:18;49.37;;;4.33;;
8474;SDS011;4274;52.012;8.448;2023-12-22T02:51:44;51.67;;;4.63;;
8474;SDS011;4274;52.012;8.448;2023-12-22T02:54:10;51.60;;;4.40;;
8474;SDS011;4274;52.012;8.448;2023-12-22T02:56:35;46.00;;;4.00;;
8474;SDS011;4274;52.012;8.448;2023-12-22T02:59:01;46.90;;;4.00;;
8474;SDS011;4274;52.012;8.448;2023-12-22T03:01:26;42.57;;;3.37;;
8474;SDS011;4274;52.012;8.448;2023-12-22T03:03:52;53.30;;;3.53;;
8474;SDS011;4274;52.012;8.448;2023-12-22T03:06:17;52.13;;;4.10;;
8474;SDS011;4274;52.012;8.448;2023-12-22T03:08:43;56.73;;;3.70;;
8474;SDS011;4274;52.012;8.448;2023-12-22T03:11:08;47.77;;;4.63;;
8474;SDS011;4274;52.012;8.448;2023-12-22T03:13:34;51.00;;;4.13;;
8474;SDS011;4274;52.012;8.448;2023-12-22T03:15:59;51.57;;;3.97;;
8474;SDS011;4274;52.012;8.448;2023-12-22T03:18:25;57.00;;;4.57;;
8474;SDS011;4274;52.012;8.448;2023-12-22T03:20:50;50.70;;;4.40;;
8474;SDS011;4274;52.012;8.448;2023-12-22T03:23:16;52.60;;;4.03;;
8474;SDS011;4274;52.012;8.448;2023-12-22T03:25:41;51.37;;;5.17;;
8474;SDS011;4274;52.012;8.448;2023-12-22T03:28:07;53.53;;;3.20;;
8474;SDS011;4274;52.012;8.448;2023-12-22T03:30:33;43.93;;;3.80;;
8474;SDS011;4274;52.012;8.448;2023-12-22T03:33:00;44.13;;;3.93;;
8474;SDS011;4274;52.012;8.448;2023-12-22T03:35:26;48.40;;;4.00;;
8474;SDS011;4274;52.012;8.448;2023-12-22T03:37:51;52.60;;;5.83;;
8474;SDS011;4274;52.012;8.448;2023-12-22T03:40:17;48.00;;;3.67;;
8474;SDS011;4274;52.012;8.448;2023-12-22T03:42:43;51.63;;;4.80;;
8474;SDS011;4274;52.012;8.448;2023-12-22T03:45:08;47.73;;;3.87;;
8474;SDS011;4274;52.012;8.448;2023-12-22T03:47:34;49.10;;;4.23;;
8474;SDS011;4274;52.012;8.448;2023-12-22T03:49:59;56.90;;;4.20;;
8474;SDS011;4274;52.012;8.448;2023-12-22T03:52:25;43.10;;;4.40;;
8474;SDS011;4274;52.012;8.448;2023-12-22T03:54:51;49.00;;;3.53;;
8474;SDS011;4274;52.012;8.448;2023-12-22T03:57:16;51.00;;;3.40;;
8474;SDS011;4274;52.012;8.448;2023-12-22T03:59:42;45.27;;;3.97;;
8474;SDS011;4274;52.012;8.448;2023-12-22T04:02:08;43.60;;;3.50;;
8474;SDS011;4274;52.012;8.448;2023-12-22T04:04:37;47.03;;;3.30;;
8474;SDS011;4274;52.012;8.448;2023-12-22T04:07:03;47.93;;;3.97;;
8474;SDS011;4274;52.012;8.448;2023-12-22T04:09:28;53.57;;;3.70;;
8474;SDS011;4274;52.012;8.448;2023-12-22T04:11:54;53.10;;;4.33;;
8474;SDS011;4274;52.012;8.448;2023-12-22T04:14:19;44.23;;;3.47;;
8474;SDS011;4274;52.012;8.448;2023-12-22T04:16:45;47.50;;;3.60;;
8474;SDS011;4274;52.012;8.448;2023-12-22T04:19:11;48.47;;;3.37;;
8474;SDS011;4274;52.012;8.448;2023-12-22T04:21:36;63.03;;;4.80;;
8474;SDS011;4274;52.012;8.448;2023-12-22T04:24:02;42.70;;;3.23;;
8474;SDS011;4274;52.012;8.448;2023-12-22T04:26:28;48.03;;;3.57;;
8474;SDS011;4274;52.012;8.448;2023-12-22T04:28:53;43.50;;;2.60;;
8474;SDS011;4274;52.012;8.448;2023-12-22T04:31:19;43.50;;;3.60;;
8474;SDS011;4274;52.012;8.448;2023-12-22T04:33:44;54.33;;;3.97;;
8474;SDS011;4274;52.012;8.448;2023-12-22T04:36:10;47.97;;;4.37;;
8474;SDS011;4274;52.012;8.448;2023-12-22T04:38:35;47.73;;;3.20;;
8474;SDS011;4274;52.012;8.448;2023-12-22T04:41:01;39.83;;;2.87;;
8474;SDS011;4274;52.012;8.448;2023-12-22T04:43:27;47.87;;;2.73;;
8474;SDS011;4274;52.012;8.448;2023-12-22T04:45:52;43.60;;;3.10;;
8474;SDS011;4274;52.012;8.448;2023-12-22T04:48:18;42.90;;;2.60;;
8474;SDS011;4274;52.012;8.448;2023-12-22T04:50:43;40.97;;;2.77;;
8474;SDS011;4274;52.012;8.448;2023-12-22T04:53:09;41.13;;;2.80;;
8474;SDS011;4274;52.012;8.448;2023-12-22T04:55:34;42.80;;;2.80;;
8474;SDS011;4274;52.012;8.448;2023-12-22T04:58:00;40.50;;;2.40;;
8474;SDS011;4274;52.012;8.448;2023-12-22T05:00:26;38.77;;;2.67;;
8474;SDS011;4274;52.012;8.448;2023-12-22T05:02:51;45.60;;;2.70;;
8474;SDS011;4274;52.012;8.448;2023-12-22T05:05:17;47.63;;;2.90;;
8474;SDS011;4274;52.012;8.448;2023-12-22T05:07:43;40.53;;;2.30;;
8474;SDS011;4274;52.012;8.448;2023-12-22T05:10:08;47.53;;;2.50;;
8474;SDS011;4274;52.012;8.448;2023-12-22T05:12:34;39.70;;;2.10;;
8474;SDS011;4274;52.012;8.448;2023-12-22T05:14:59;37.30;;;2.30;;
8474;SDS011;4274;52.012;8.448;2023-12-22T05:17:25;38.50;;;2.27;;
8474;SDS011;4274;52.012;8.448;2023-12-22T05:19:51;40.10;;;2.20;;
8474;SDS011;4274;52.012;8.448;2023-12-22T05:22:16;43.63;;;2.70;;
8474;SDS011;4274;52.012;8.448;2023-12-22T05:24:42;38.90;;;2.23;;
8474;SDS011;4274;52.012;8.448;2023-12-22T05:27:07;39.80;;;2.40;;
8474;SDS011;4274;52.012;8.448;2023-12-22T05:29:33;42.07;;;3.00;;
8474;SDS011;4274;52.012;8.448;2023-12-22T05:31:58;38.57;;;2.33;;
8474;SDS011;4274;52.012;8.448;2023-12-22T05:34:24;38.00;;;2.43;;
8474;SDS011;4274;52.012;8.448;2023-12-22T05:36:50;40.37;;;2.27;;
8474;SDS011;4274;52.012;8.448;2023-12-22T05:39:15;39.80;;;2.70;;
8474;SDS011;4274;52.012;8.448;2023-12-22T05:41:41;46.30;;;2.63;;
8474;SDS011;4274;52.012;8.448;2023-12-22T05:44:07;39.70;;;2.60;;
8474;SDS011;4274;52.012;8.448;2023-12-22T05:46:38;44.43;;;2.77;;
8474;SDS011;4274;52.012;8.448;2023-12-22T05:49:04;46.30;;;2.70;;
8474;SDS011;4274;52.012;8.448;2023-12-22T05:51:35;45.30;;;3.27;;
8474;SDS011;4274;52.012;8.448;2023-12-22T05:54:03;47.83;;;2.70;;
8474;SDS011;4274;52.012;8.448;2023-12-22T05:56:29;42.33;;;2.50;;
8474;SDS011;4274;52.012;8.448;2023-12-22T05:58:54;47.00;;;3.97;;
8474;SDS011;4274;52.012;8.448;2023-12-22T06:01:20;42.07;;;2.73;;
8474;SDS011;4274;52.012;8.448;2023-12-22T06:03:46;39.90;;;3.30;;
8474;SDS011;4274;52.012;8.448;2023-12-22T06:06:11;40.70;;;3.30;;
8474;SDS011;4274;52.012;8.448;2023-12-22T06:08:37;44.70;;;2.70;;
8474;SDS011;4274;52.012;8.448;2023-12-22T06:11:03;41.97;;;2.70;;
8474;SDS011;4274;52.012;8.448;2023-12-22T06:13:30;41.73;;;2.63;;
8474;SDS011;4274;52.012;8.448;2023-12-22T06:15:55;41.27;;;3.10;;
8474;SDS011;4274;52.012;8.448;2023-12-22T06:18:21;40.53;;;2.97;;
8474;SDS011;4274;52.012;8.448;2023-12-22T06:20:47;41.43;;;4.13;;
8474;SDS011;4274;52.012;8.448;2023-12-22T06:23:13;41.97;;;3.10;;
8474;SDS011;4274;52.012;8.448;2023-12-22T06:25:38;42.37;;;2.60;;
8474;SDS011;4274;52.012;8.448;2023-12-22T06:28:04;45.00;;;3.03;;
8474;SDS011;4274;52.012;8.448;2023-12-22T06:30:29;52.87;;;3.47;;
8474;SDS011;4274;52.012;8.448;2023-12-22T06:32:55;47.60;;;3.87;;
8474;SDS011;4274;52.012;8.448;2023-12-22T06:35:21;47.43;;;3.33;;
8474;SDS011;4274;52.012;8.448;2023-12-22T06:37:49;42.60;;;3.33;;
8474;SDS011;4274;52.012;8.448;2023-12-22T06:40:15;47.60;;;3.80;;
8474;SDS011;4274;52.012;8.448;2023-12-22T06:42:40;43.53;;;3.43;;
8474;SDS011;4274;52.012;8.448;2023-12-22T06:45:06;46.80;;;2.60;;
8474;SDS011;4274;52.012;8.448;2023-12-22T06:47:32;41.07;;;3.40;;
8474;SDS011;4274;52.012;8.448;2023-12-22T06:49:58;44.60;;;3.10;;
8474;SDS011;4274;52.012;8.448;2023-12-22T06:52:24;46.73;;;3.13;;
8474;SDS011;4274;52.012;8.448;2023-12-22T06:54:49;57.43;;;3.90;;
8474;SDS011;4274;52.012;8.448;2023-12-22T06:57:15;48.53;;;3.30;;
8474;SDS011;4274;52.012;8.448;2023-12-22T06:59:41;42.97;;;3.20;;
8474;SDS011;4274;52.012;8.448;2023-12-22T07:02:07;43.57;;;4.87;;
8474;SDS011;4274;52.012;8.448;2023-12-22T07:04:33;60.10;;;4.60;;
8474;SDS011;4274;52.012;8.448;2023-12-22T07:06:59;50.63;;;4.27;;
8474;SDS011;4274;52.012;8.448;2023-12-22T07:11:50;45.90;;;3.30;;
8474;SDS011;4274;52.012;8.448;2023-12-22T07:14:17;49.43;;;3.77;;
8474;SDS011;4274;52.012;8.448;2023-12-22T07:16:43;48.87;;;3.83;;
8474;SDS011;4274;52.012;8.448;2023-12-22T07:19:09;54.40;;;4.70;;
8474;SDS011;4274;52.012;8.448;2023-12-22T07:21:38;45.43;;;3.30;;
8474;SDS011;4274;52.012;8.448;2023-12-22T07:24:04;40.70;;;3.47;;
8474;SDS011;4274;52.012;8.448;2023-12-22T07:26:30;48.00;;;3.57;;
8474;SDS011;4274;52.012;8.448;2023-12-22T07:28:55;45.77;;;3.40;;
8474;SDS011;4274;52.012;8.448;2023-12-22T07:31:21;57.03;;;4.57;;
8474;SDS011;4274;52.012;8.448;2023-12-22T07:33:47;44.83;;;3.80;;
8474;SDS011;4274;52.012;8.448;2023-12-22T07:36:13;46.10;;;3.00;;
8474;SDS011;4274;52.012;8.448;2023-12-22T07:38:39;42.53;;;3.13;;
8474;SDS011;4274;52.012;8.448;2023-12-22T07:41:05;54.10;;;3.57;;
8474;SDS011;4274;52.012;8.448;2023-12-22T07:43:30;44.63;;;3.60;;
8474;SDS011;4274;52.012;8.448;2023-12-22T07:45:56;41.27;;;2.90;;
8474;SDS011;4274;52.012;8.448;2023-12-22T07:48:22;54.83;;;3.03;;
8474;SDS011;4274;52.012;8.448;2023-12-22T07:50:49;50.60;;;3.37;;
8474;SDS011;4274;52.012;8.448;2023-12-22T07:53:14;49.70;;;3.33;;
8474;SDS011;4274;52.012;8.448;2023-12-22T07:55:40;55.37;;;3.37;;
8474;SDS011;4274;52.012;8.448;2023-12-22T07:58:06;52.20;;;4.53;;
8474;SDS011;4274;52.012;8.448;2023-12-22T08:00:32;44.73;;;3.37;;
8474;SDS011;4274;52.012;8.448;2023-12-22T08:02:58;53.30;;;3.87;;
8474;SDS011;4274;52.012;8.448;2023-12-22T08:05:24;47.00;;;4.30;;
8474;SDS011;4274;52.012;8.448;2023-12-22T08:07:50;44.90;;;3.60;;
8474;SDS011;4274;52.012;8.448;2023-12-22T08:10:15;71.47;;;6.90;;
8474;SDS011;4274;52.012;8.448;2023-12-22T08:12:41;45.77;;;2.83;;
8474;SDS011;4274;52.012;8.448;2023-12-22T08:15:07;50.77;;;3.80;;
8474;SDS011;4274;52.012;8.448;2023-12-22T08:17:35;53.20;;;3.50;;
8474;SDS011;4274;52.012;8.448;2023-12-22T08:20:02;43.43;;;4.07;;
8474;SDS011;4274;52.012;8.448;2023-12-22T08:22:28;49.97;;;4.33;;
8474;SDS011;4274;52.012;8.448;2023-12-22T08:24:54;46.50;;;3.40;;
8474;SDS011;4274;52.012;8.448;2023-12-22T08:27:19;54.63;;;3.43;;
8474;SDS011;4274;52.012;8.448;2023-12-22T08:29:45;51.20;;;3.60;;
8474;SDS011;4274;52.012;8.448;2023-12-22T08:32:10;50.70;;;4.33;;
8474;SDS011;4274;52.012;8.448;2023-12-22T08:34:36;49.60;;;4.27;;
8474;SDS011;4274;52.012;8.448;2023-12-22T08:37:02;49.00;;;4.63;;
8474;SDS011;4274;52.012;8.448;2023-12-22T08:39:27;46.30;;;3.90;;
8474;SDS011;4274;52.012;8.448;2023-12-22T08:41:53;47.37;;;3.30;;
8474;SDS011;4274;52.012;8.448;2023-12-22T08:44:19;50.23;;;3.80;;
8474;SDS011;4274;52.012;8.448;2023-12-22T08:46:44;47.63;;;3.57;;
8474;SDS011;4274;52.012;8.448;2023-12-22T08:49:10;49.67;;;3.10;;
8474;SDS011;4274;52.012;8.448;2023-12-22T08:51:36;48.80;;;3.73;;
8474;SDS011;4274;52.012;8.448;2023-12-22T08:54:01;48.77;;;3.57;;
8474;SDS011;4274;52.012;8.448;2023-12-22T08:56:29;52.80;;;4.23;;
8474;SDS011;4274;52.012;8.448;2023-12-22T08:58:54;49.77;;;3.93;;
8474;SDS011;4274;52.012;8.448;2023-12-22T09:01:20;48.23;;;3.23;;
8474;SDS011;4274;52.012;8.448;2023-12-22T09:03:47;53.83;;;3.90;;
8474;SDS011;4274;52.012;8.448;2023-12-22T09:08:42;48.60;;;3.67;;
8474;SDS011;4274;52.012;8.448;2023-12-22T09:11:10;41.90;;;2.87;;
8474;SDS011;4274;52.012;8.448;2023-12-22T09:13:40;47.50;;;3.10;;
8474;SDS011;4274;52.012;8.448;2023-12-22T09:16:06;49.20;;;4.27;;
8474;SDS011;4274;52.012;8.448;2023-12-22T09:18:32;57.43;;;3.50;;
8474;SDS011;4274;52.012;8.448;2023-12-22T09:20:58;47.10;;;2.80;;
8474;SDS011;4274;52.012;8.448;2023-12-22T09:23:24;39.20;;;2.40;;
8474;SDS011;4274;52.012;8.448;2023-12-22T09:25:49;43.37;;;2.60;;
8474;SDS011;4274;52.012;8.448;2023-12-22T09:28:15;41.03;;;2.70;;
8474;SDS011;4274;52.012;8.448;2023-12-22T09:30:41;45.57;;;3.00;;
8474;SDS011;4274;52.012;8.448;2023-12-22T09:33:07;41.53;;;2.87;;
8474;SDS011;4274;52.012;8.448;2023-12-22T09:35:34;43.33;;;3.00;;
8474;SDS011;4274;52.012;8.448;2023-12-22T09:38:00;44.93;;;2.60;;
8474;SDS011;4274;52.012;8.448;2023-12-22T09:40:25;45.50;;;3.37;;
8474;SDS011;4274;52.012;8.448;2023-12-22T09:42:53;39.10;;;2.50;;
8474;SDS011;4274;52.012;8.448;2023-12-22T09:45:19;39.20;;;2.50;;
8474;SDS011;4274;52.012;8.448;2023-12-22T09:47:46;39.47;;;2.80;;
8474;SDS011;4274;52.012;8.448;2023-12-22T09:50:13;39.80;;;2.50;;
8474;SDS011;4274;52.012;8.448;2023-12-22T09:52:40;41.20;;;4.00;;
8474;SDS011;4274;52.012;8.448;2023-12-22T09:55:09;47.30;;;2.90;;
8474;SDS011;4274;52.012;8.448;2023-12-22T09:57:35;44.50;;;2.87;;
8474;SDS011;4274;52.012;8.448;2023-12-22T10:00:02;40.00;;;2.87;;
8474;SDS011;4274;52.012;8.448;2023-12-22T10:02:31;42.83;;;3.30;;
8474;SDS011;4274;52.012;8.448;2023-12-22T10:04:59;40.30;;;2.73;;
8474;SDS011;4274;52.012;8.448;2023-12-22T10:07:25;41.73;;;2.67;;
8474;SDS011;4274;52.012;8.448;2023-12-22T10:09:52;42.00;;;2.70;;
8474;SDS011;4274;52.012;8.448;2023-12-22T10:12:18;41.43;;;2.67;;
8474;SDS011;4274;52.012;8.448;2023-12-22T10:14:45;49.80;;;3.53;;
8474;SDS011;4274;52.012;8.448;2023-12-22T10:17:14;50.63;;;2.90;;
8474;SDS011;4274;52.012;8.448;2023-12-22T10:19:41;42.10;;;2.50;;
8474;SDS011;4274;52.012;8.448;2023-12-22T10:22:07;42.60;;;2.40;;
8474;SDS011;4274;52.012;8.448;2023-12-22T10:24:36;39.50;;;2.40;;
8474;SDS011;4274;52.012;8.448;2023-12-22T10:27:07;55.10;;;4.10;;
8474;SDS011;4274;52.012;8.448;2023-12-22T10:29:33;45.58;;;2.72;;
8474;SDS011;4274;52.012;8.448;2023-12-22T10:32:03;43.50;;;3.53;;
8474;SDS011;4274;52.012;8.448;2023-12-22T10:34:30;42.60;;;3.10;;
8474;SDS011;4274;52.012;8.448;2023-12-22T10:36:56;40.70;;;2.40;;
8474;SDS011;4274;52.012;8.448;2023-12-22T10:39:22;45.57;;;2.60;;
8474;SDS011;4274;52.012;8.448;2023-12-22T10:41:47;41.20;;;2.60;;
8474;SDS011;4274;52.012;8.448;2023-12-22T10:44:14;42.57;;;3.37;;
8474;SDS011;4274;52.012;8.448;2023-12-22T10:46:42;39.87;;;2.63;;
8474;SDS011;4274;52.012;8.448;2023-12-22T10:49:08;42.10;;;3.23;;
8474;SDS011;4274;52.012;8.448;2023-12-22T10:51:33;51.47;;;3.50;;
8474;SDS011;4274;52.012;8.448;2023-12-22T10:53:59;39.57;;;3.00;;
8474;SDS011;4274;52.012;8.448;2023-12-22T10:56:24;41.27;;;2.60;;
8474;SDS011;4274;52.012;8.448;2023-12-22T10:58:51;38.80;;;3.10;;
8474;SDS011;4274;52.012;8.448;2023-12-22T11:01:22;44.17;;;3.47;;
8474;SDS011;4274;52.012;8.448;2023-12-22T11:03:53;40.97;;;2.90;;
8474;SDS011;4274;52.012;8.448;2023-12-22T11:06:22;40.60;;;3.30;;
8474;SDS011;4274;52.012;8.448;2023-12-22T11:08:51;39.60;;;2.33;;
8474;SDS011;4274;52.012;8.448;2023-12-22T11:11:20;41.10;;;3.70;;
8474;SDS011;4274;52.012;8.448;2023-12-22T11:14:02;44.57;;;2.73;;
8474;SDS011;4274;52.012;8.448;2023-12-22T11:16:29;39.50;;;2.50;;
8474;SDS011;4274;52.012;8.448;2023-12-22T11:18:55;38.10;;;2.27;;
8474;SDS011;4274;52.012;8.448;2023-12-22T11:21:24;40.03;;;2.53;;
8474;SDS011;4274;52.012;8.448;2023-12-22T11:23:51;48.07;;;4.00;;
8474;SDS011;4274;52.012;8.448;2023-12-22T11:26:18;39.60;;;2.53;;
8474;SDS011;4274;52.012;8.448;2023-12-22T11:28:44;37.67;;;2.20;;
8474;SDS011;4274;52.012;8.448;2023-12-22T11:31:11;41.57;;;2.53;;
8474;SDS011;4274;52.012;8.448;2023-12-22T11:33:37;39.80;;;2.77;;
8474;SDS011;4274;52.012;8.448;2023-12-22T11:36:08;41.33;;;2.80;;
8474;SDS011;4274;52.012;8.448;2023-12-22T11:38:34;41.37;;;3.10;;
8474;SDS011;4274;52.012;8.448;2023-12-22T11:41:00;38.67;;;2.90;;
8474;SDS011;4274;52.012;8.448;2023-12-22T11:43:27;37.33;;;2.53;;
8474;SDS011;4274;52.012;8.448;2023-12-22T11:45:54;43.23;;;3.00;;
8474;SDS011;4274;52.012;8.448;2023-12-22T11:48:21;39.47;;;2.87;;
8474;SDS011;4274;52.012;8.448;2023-12-22T11:50:47;38.53;;;2.80;;
8474;SDS011;4274;52.012;8.448;2023-12-22T11:53:25;40.73;;;2.93;;
8474;SDS011;4274;52.012;8.448;2023-12-22T11:58:43;47.03;;;2.57;;
8474;SDS011;4274;52.012;8.448;2023-12-22T12:01:20;37.47;;;2.67;;
8474;SDS011;4274;52.012;8.448;2023-12-22T12:03:51;39.40;;;3.07;;
8474;SDS011;4274;52.012;8.448;2023-12-22T12:08:46;41.00;;;2.70;;
8474;SDS011;4274;52.012;8.448;2023-12-22T12:11:13;46.57;;;4.03;;
8474;SDS011;4274;52.012;8.448;2023-12-22T12:13:41;37.90;;;2.50;;
8474;SDS011;4274;52.012;8.448;2023-12-22T12:16:09;36.60;;;2.17;;
8474;SDS011;4274;52.012;8.448;2023-12-22T12:18:40;40.53;;;2.33;;
8474;SDS011;4274;52.012;8.448;2023-12-22T12:21:09;38.67;;;2.50;;
8474;SDS011;4274;52.012;8.448;2023-12-22T12:23:36;39.90;;;2.47;;
8474;SDS011;4274;52.012;8.448;2023-12-22T12:26:03;38.20;;;2.33;;
8474;SDS011;4274;52.012;8.448;2023-12-22T12:28:32;40.53;;;2.20;;
8474;SDS011;4274;52.012;8.448;2023-12-22T12:31:08;39.37;;;2.40;;
8474;SDS011;4274;52.012;8.448;2023-12-22T12:33:35;40.60;;;2.27;;
8474;SDS011;4274;52.012;8.448;2023-12-22T12:36:01;37.00;;;2.20;;
8474;SDS011;4274;52.012;8.448;2023-12-22T12:38:48;39.90;;;2.43;;
8474;SDS011;4274;52.012;8.448;2023-12-22T12:41:30;36.77;;;2.30;;
8474;SDS011;4274;52.012;8.448;2023-12-22T12:43:56;37.27;;;2.60;;
8474;SDS011;4274;52.012;8.448;2023-12-22T12:46:23;38.50;;;2.20;;
8474;SDS011;4274;52.012;8.448;2023-12-22T12:49:06;38.27;;;2.63;;
8474;SDS011;4274;52.012;8.448;2023-12-22T12:51:42;41.67;;;2.53;;
8474;SDS011;4274;52.012;8.448;2023-12-22T12:54:08;38.70;;;2.73;;
8474;SDS011;4274;52.012;8.448;2023-12-22T12:56:45;36.67;;;2.10;;
8474;SDS011;4274;52.012;8.448;2023-12-22T12:59:15;36.87;;;2.17;;
8474;SDS011;4274;52.012;8.448;2023-12-22T13:01:41;36.43;;;2.07;;
8474;SDS011;4274;52.012;8.448;2023-12-22T13:04:08;36.90;;;2.60;;
8474;SDS011;4274;52.012;8.448;2023-12-22T13:06:34;37.90;;;2.00;;
8474;SDS011;4274;52.012;8.448;2023-12-22T13:09:00;40.07;;;3.40;;
8474;SDS011;4274;52.012;8.448;2023-12-22T13:11:26;36.87;;;2.17;;
8474;SDS011;4274;52.012;8.448;2023-12-22T13:13:55;36.77;;;2.10;;
8474;SDS011;4274;52.012;8.448;2023-12-22T13:16:22;39.07;;;1.40;;
8474;SDS011;4274;52.012;8.448;2023-12-22T13:18:54;37.47;;;1.80;;
8474;SDS011;4274;52.012;8.448;2023-12-22T13:21:22;36.40;;;2.00;;
8474;SDS011;4274;52.012;8.448;2023-12-22T13:23:47;37.17;;;1.90;;
8474;SDS011;4274;52.012;8.448;2023-12-22T13:26:32;38.53;;;2.20;;
8474;SDS011;4274;52.012;8.448;2023-12-22T13:28:57;38.20;;;2.07;;
8474;SDS011;4274;52.012;8.448;2023-12-22T13:31:24;36.60;;;2.00;;
8474;SDS011;4274;52.012;8.448;2023-12-22T13:33:51;36.37;;;1.80;;
8474;SDS011;4274;52.012;8.448;2023-12-22T13:36:17;38.40;;;2.00;;
8474;SDS011;4274;52.012;8.448;2023-12-22T13:38:47;36.50;;;2.00;;
8474;SDS011;4274;52.012;8.448;2023-12-22T13:41:13;36.70;;;1.90;;
8474;SDS011;4274;52.012;8.448;2023-12-22T13:43:40;36.20;;;2.00;;
8474;SDS011;4274;52.012;8.448;2023-12-22T13:46:06;38.17;;;2.20;;
8474;SDS011;4274;52.012;8.448;2023-12-22T13:48:34;37.20;;;2.43;;
8474;SDS011;4274;52.012;8.448;2023-12-22T13:51:01;39.77;;;2.27;;
8474;SDS011;4274;52.012;8.448;2023-12-22T13:53:26;38.93;;;2.10;;
8474;SDS011;4274;52.012;8.448;2023-12-22T13:55:59;37.13;;;2.27;;
8474;SDS011;4274;52.012;8.448;2023-12-22T13:58:25;39.70;;;2.10;;
8474;SDS011;4274;52.012;8.448;2023-12-22T14:00:51;39.40;;;2.20;;
8474;SDS011;4274;52.012;8.448;2023-12-22T14:03:18;36.07;;;1.93;;
8474;SDS011;4274;52.012;8.448;2023-12-22T14:05:47;36.10;;;2.20;;
8474;SDS011;4274;52.012;8.448;2023-12-22T14:08:14;37.07;;;2.10;;
8474;SDS011;4274;52.012;8.448;2023-12-22T14:10:47;35.87;;;1.80;;
8474;SDS011;4274;52.012;8.448;2023-12-22T14:13:13;43.80;;;2.00;;
8474;SDS011;4274;52.012;8.448;2023-12-22T14:15:41;36.30;;;2.10;;
8474;SDS011;4274;52.012;8.448;2023-12-22T14:18:07;38.30;;;2.30;;
8474;SDS011;4274;52.012;8.448;2023-12-22T14:20:33;37.37;;;2.00;;
8474;SDS011;4274;52.012;8.448;2023-12-22T14:22:59;36.83;;;2.00;;
8474;SDS011;4274;52.012;8.448;2023-12-22T14:25:24;36.03;;;1.83;;
8474;SDS011;4274;52.012;8.448;2023-12-22T14:27:52;38.60;;;2.23;;
8474;SDS011;4274;52.012;8.448;2023-12-22T14:30:22;35.57;;;1.80;;
8474;SDS011;4274;52.012;8.448;2023-12-22T14:32:50;38.83;;;2.00;;
8474;SDS011;4274;52.012;8.448;2023-12-22T14:35:16;36.70;;;1.90;;
8474;SDS011;4274;52.012;8.448;2023-12-22T14:37:41;36.60;;;2.13;;
8474;SDS011;4274;52.012;8.448;2023-12-22T14:40:08;35.80;;;2.00;;
8474;SDS011;4274;52.012;8.448;2023-12-22T14:42:34;38.40;;;1.50;;
8474;SDS011;4274;52.012;8.448;2023-12-22T14:45:00;38.70;;;1.70;;
8474;SDS011;4274;52.012;8.448;2023-12-22T14:47:29;38.97;;;2.57;;
8474;SDS011;4274;52.012;8.448;2023-12-22T14:49:55;36.17;;;1.87;;
8474;SDS011;4274;52.012;8.448;2023-12-22T14:52:24;37.23;;;2.17;;
8474;SDS011;4274;52.012;8.448;2023-12-22T14:54:50;36.10;;;1.90;;
8474;SDS011;4274;52.012;8.448;2023-12-22T14:57:16;36.57;;;2.07;;
8474;SDS011;4274;52.012;8.448;2023-12-22T14:59:44;37.10;;;2.20;;
8474;SDS011;4274;52.012;8.448;2023-12-22T15:02:10;36.60;;;2.40;;
8474;SDS011;4274;52.012;8.448;2023-12-22T15:04:36;36.70;;;2.60;;
8474;SDS011;4274;52.012;8.448;2023-12-22T15:07:01;38.37;;;2.90;;